sensor_id;sensor_type;location;lat;lon;timestamp;P1;durP1;ratioP1;P2;durP2;ratioP2
40907;SDS011;51055;59.436;24.778;2023-05-29T00:02:13;9.50;;;3.78;;
40907;SDS011;51055;59.436;24.778;2023-05-29T00:04:41;10.05;;;3.85;;
40907;SDS011;51055;59.436;24.778;2023-05-29T00:07:09;9.85;;;3.38;;
40907;SDS011;51055;59.436;24.778;2023-05-29T00:09:36;9.60;;;3.28;;
40907;SDS011;51055;59.436;24.778;2023-05-29T00:12:04;10.55;;;3.63;;
40907;SDS011;51055;59.436;24.778;2023-05-29T00:14:33;8.30;;;3.40;;
40907;SDS011;51055;59.436;24.778;2023-05-29T00:17:00;8.38;;;3.50;;
40907;SDS011;51055;59.436;24.778;2023-05-29T00:19:30;8.57;;;3.60;;
40907;SDS011;51055;59.436;24.778;2023-05-29T00:21:57;9.50;;;3.25;;
40907;SDS011;51055;59.436;24.778;2023-05-29T00:24:25;9.95;;;3.60;;
40907;SDS011;51055;59.436;24.778;2023-05-29T00:26:52;11.10;;;4.03;;
40907;SDS011;51055;59.436;24.778;2023-05-29T00:29:20;10.85;;;3.92;;
40907;SDS011;51055;59.436;24.778;2023-05-29T00:31:49;8.95;;;3.55;;
40907;SDS011;51055;59.436;24.778;2023-05-29T00:34:17;9.90;;;3.47;;
40907;SDS011;51055;59.436;24.778;2023-05-29T00:36:45;8.52;;;3.75;;
40907;SDS011;51055;59.436;24.778;2023-05-29T00:39:13;12.20;;;4.05;;
40907;SDS011;51055;59.436;24.778;2023-05-29T00:41:41;11.23;;;3.90;;
40907;SDS011;51055;59.436;24.778;2023-05-29T00:44:09;8.55;;;3.60;;
40907;SDS011;51055;59.436;24.778;2023-05-29T00:46:37;12.05;;;4.30;;
40907;SDS011;51055;59.436;24.778;2023-05-29T00:49:05;10.52;;;3.80;;
40907;SDS011;51055;59.436;24.778;2023-05-29T00:51:33;10.77;;;4.07;;
40907;SDS011;51055;59.436;24.778;2023-05-29T00:54:00;11.77;;;4.15;;
40907;SDS011;51055;59.436;24.778;2023-05-29T00:56:28;11.65;;;4.22;;
40907;SDS011;51055;59.436;24.778;2023-05-29T00:58:56;9.50;;;3.88;;
40907;SDS011;51055;59.436;24.778;2023-05-29T01:01:24;11.10;;;4.30;;
40907;SDS011;51055;59.436;24.778;2023-05-29T01:03:53;10.43;;;3.95;;
40907;SDS011;51055;59.436;24.778;2023-05-29T01:06:24;12.85;;;4.53;;
40907;SDS011;51055;59.436;24.778;2023-05-29T01:08:52;14.55;;;4.20;;
40907;SDS011;51055;59.436;24.778;2023-05-29T01:14:41;11.93;;;4.13;;
40907;SDS011;51055;59.436;24.778;2023-05-29T01:17:34;10.43;;;3.88;;
40907;SDS011;51055;59.436;24.778;2023-05-29T01:35:14;11.68;;;4.35;;
40907;SDS011;51055;59.436;24.778;2023-05-29T01:37:42;12.20;;;4.73;;
40907;SDS011;51055;59.436;24.778;2023-05-29T01:40:11;9.75;;;4.30;;
40907;SDS011;51055;59.436;24.778;2023-05-29T01:42:39;9.88;;;4.65;;
40907;SDS011;51055;59.436;24.778;2023-05-29T01:45:08;10.55;;;4.70;;
40907;SDS011;51055;59.436;24.778;2023-05-29T01:47:36;10.80;;;4.40;;
40907;SDS011;51055;59.436;24.778;2023-05-29T01:50:04;13.00;;;4.60;;
40907;SDS011;51055;59.436;24.778;2023-05-29T01:52:33;10.77;;;4.32;;
40907;SDS011;51055;59.436;24.778;2023-05-29T01:55:01;11.85;;;4.53;;
40907;SDS011;51055;59.436;24.778;2023-05-29T01:57:29;11.57;;;4.32;;
40907;SDS011;51055;59.436;24.778;2023-05-29T01:59:56;10.38;;;4.15;;
40907;SDS011;51055;59.436;24.778;2023-05-29T02:02:24;10.25;;;4.45;;
40907;SDS011;51055;59.436;24.778;2023-05-29T02:04:51;12.57;;;4.18;;
40907;SDS011;51055;59.436;24.778;2023-05-29T02:07:19;14.15;;;4.82;;
40907;SDS011;51055;59.436;24.778;2023-05-29T02:09:47;11.77;;;4.47;;
40907;SDS011;51055;59.436;24.778;2023-05-29T02:12:15;12.18;;;4.57;;
40907;SDS011;51055;59.436;24.778;2023-05-29T02:14:43;10.43;;;4.80;;
40907;SDS011;51055;59.436;24.778;2023-05-29T02:17:10;13.50;;;4.25;;
40907;SDS011;51055;59.436;24.778;2023-05-29T02:19:38;12.63;;;4.82;;
40907;SDS011;51055;59.436;24.778;2023-05-29T02:22:06;11.07;;;4.18;;
40907;SDS011;51055;59.436;24.778;2023-05-29T02:24:35;11.57;;;4.60;;
40907;SDS011;51055;59.436;24.778;2023-05-29T02:27:02;12.05;;;4.55;;
40907;SDS011;51055;59.436;24.778;2023-05-29T02:29:30;12.25;;;4.97;;
40907;SDS011;51055;59.436;24.778;2023-05-29T02:31:58;10.98;;;4.90;;
40907;SDS011;51055;59.436;24.778;2023-05-29T02:34:25;10.20;;;4.55;;
40907;SDS011;51055;59.436;24.778;2023-05-29T02:36:54;12.38;;;5.40;;
40907;SDS011;51055;59.436;24.778;2023-05-29T02:39:21;13.02;;;5.25;;
40907;SDS011;51055;59.436;24.778;2023-05-29T02:41:49;16.00;;;5.55;;
40907;SDS011;51055;59.436;24.778;2023-05-29T02:44:16;14.88;;;5.63;;
40907;SDS011;51055;59.436;24.778;2023-05-29T02:46:44;13.80;;;4.97;;
40907;SDS011;51055;59.436;24.778;2023-05-29T02:49:12;12.45;;;5.18;;
40907;SDS011;51055;59.436;24.778;2023-05-29T02:51:40;13.30;;;5.43;;
40907;SDS011;51055;59.436;24.778;2023-05-29T02:54:08;11.65;;;4.50;;
40907;SDS011;51055;59.436;24.778;2023-05-29T02:56:36;12.98;;;5.03;;
40907;SDS011;51055;59.436;24.778;2023-05-29T02:59:03;12.50;;;4.43;;
40907;SDS011;51055;59.436;24.778;2023-05-29T03:01:31;10.48;;;3.92;;
40907;SDS011;51055;59.436;24.778;2023-05-29T03:04:00;9.98;;;4.15;;
40907;SDS011;51055;59.436;24.778;2023-05-29T03:06:28;11.43;;;4.68;;
40907;SDS011;51055;59.436;24.778;2023-05-29T03:08:55;11.82;;;4.30;;
40907;SDS011;51055;59.436;24.778;2023-05-29T03:11:23;13.53;;;4.70;;
40907;SDS011;51055;59.436;24.778;2023-05-29T03:13:52;12.15;;;4.50;;
40907;SDS011;51055;59.436;24.778;2023-05-29T03:16:19;9.82;;;3.72;;
40907;SDS011;51055;59.436;24.778;2023-05-29T03:18:51;11.15;;;4.20;;
40907;SDS011;51055;59.436;24.778;2023-05-29T03:21:19;11.05;;;4.07;;
40907;SDS011;51055;59.436;24.778;2023-05-29T03:23:46;11.98;;;4.20;;
40907;SDS011;51055;59.436;24.778;2023-05-29T03:26:14;11.35;;;3.83;;
40907;SDS011;51055;59.436;24.778;2023-05-29T03:28:42;10.25;;;3.95;;
40907;SDS011;51055;59.436;24.778;2023-05-29T03:31:10;11.48;;;3.80;;
40907;SDS011;51055;59.436;24.778;2023-05-29T03:33:38;9.73;;;4.32;;
40907;SDS011;51055;59.436;24.778;2023-05-29T03:36:05;13.13;;;4.45;;
40907;SDS011;51055;59.436;24.778;2023-05-29T03:38:35;15.23;;;4.75;;
40907;SDS011;51055;59.436;24.778;2023-05-29T03:41:02;12.60;;;4.27;;
40907;SDS011;51055;59.436;24.778;2023-05-29T03:43:30;11.43;;;4.05;;
40907;SDS011;51055;59.436;24.778;2023-05-29T03:45:58;8.27;;;4.18;;
40907;SDS011;51055;59.436;24.778;2023-05-29T03:48:25;11.85;;;4.47;;
40907;SDS011;51055;59.436;24.778;2023-05-29T03:50:53;10.02;;;4.05;;
40907;SDS011;51055;59.436;24.778;2023-05-29T03:53:20;12.18;;;4.43;;
40907;SDS011;51055;59.436;24.778;2023-05-29T03:55:48;10.05;;;5.07;;
40907;SDS011;51055;59.436;24.778;2023-05-29T03:58:15;8.05;;;3.97;;
40907;SDS011;51055;59.436;24.778;2023-05-29T04:00:43;10.73;;;4.10;;
40907;SDS011;51055;59.436;24.778;2023-05-29T04:03:10;7.57;;;3.38;;
40907;SDS011;51055;59.436;24.778;2023-05-29T04:05:38;8.07;;;3.28;;
40907;SDS011;51055;59.436;24.778;2023-05-29T04:08:06;9.98;;;3.55;;
40907;SDS011;51055;59.436;24.778;2023-05-29T04:10:40;9.98;;;3.58;;
40907;SDS011;51055;59.436;24.778;2023-05-29T04:13:08;7.88;;;3.30;;
40907;SDS011;51055;59.436;24.778;2023-05-29T04:15:36;9.70;;;3.30;;
40907;SDS011;51055;59.436;24.778;2023-05-29T04:18:04;6.93;;;3.05;;
40907;SDS011;51055;59.436;24.778;2023-05-29T04:20:33;7.93;;;2.97;;
40907;SDS011;51055;59.436;24.778;2023-05-29T04:23:00;6.82;;;2.88;;
40907;SDS011;51055;59.436;24.778;2023-05-29T04:25:28;15.07;;;3.58;;
40907;SDS011;51055;59.436;24.778;2023-05-29T04:27:55;8.02;;;3.20;;
40907;SDS011;51055;59.436;24.778;2023-05-29T04:30:23;7.57;;;3.28;;
40907;SDS011;51055;59.436;24.778;2023-05-29T04:32:51;7.82;;;3.15;;
40907;SDS011;51055;59.436;24.778;2023-05-29T04:35:19;8.27;;;2.88;;
40907;SDS011;51055;59.436;24.778;2023-05-29T04:37:49;7.20;;;2.83;;
40907;SDS011;51055;59.436;24.778;2023-05-29T04:40:16;9.40;;;3.15;;
40907;SDS011;51055;59.436;24.778;2023-05-29T04:42:45;6.45;;;2.55;;
40907;SDS011;51055;59.436;24.778;2023-05-29T04:45:12;8.50;;;3.28;;
40907;SDS011;51055;59.436;24.778;2023-05-29T04:47:40;7.72;;;2.90;;
40907;SDS011;51055;59.436;24.778;2023-05-29T04:50:11;6.07;;;2.50;;
40907;SDS011;51055;59.436;24.778;2023-05-29T04:52:42;8.07;;;2.85;;
40907;SDS011;51055;59.436;24.778;2023-05-29T04:55:10;6.93;;;2.90;;
40907;SDS011;51055;59.436;24.778;2023-05-29T04:57:38;5.82;;;2.70;;
40907;SDS011;51055;59.436;24.778;2023-05-29T05:00:06;7.57;;;2.67;;
40907;SDS011;51055;59.436;24.778;2023-05-29T05:02:35;8.88;;;2.80;;
40907;SDS011;51055;59.436;24.778;2023-05-29T05:05:04;5.28;;;2.30;;
40907;SDS011;51055;59.436;24.778;2023-05-29T05:07:32;8.40;;;3.15;;
40907;SDS011;51055;59.436;24.778;2023-05-29T05:09:59;6.82;;;2.40;;
40907;SDS011;51055;59.436;24.778;2023-05-29T05:12:27;8.27;;;2.55;;
40907;SDS011;51055;59.436;24.778;2023-05-29T05:14:55;24.45;;;3.42;;
40907;SDS011;51055;59.436;24.778;2023-05-29T05:17:22;13.10;;;3.33;;
40907;SDS011;51055;59.436;24.778;2023-05-29T05:19:50;7.47;;;2.47;;
40907;SDS011;51055;59.436;24.778;2023-05-29T05:22:19;7.07;;;2.50;;
40907;SDS011;51055;59.436;24.778;2023-05-29T05:24:47;6.63;;;2.40;;
40907;SDS011;51055;59.436;24.778;2023-05-29T05:27:15;7.60;;;2.13;;
40907;SDS011;51055;59.436;24.778;2023-05-29T05:29:43;6.43;;;2.40;;
40907;SDS011;51055;59.436;24.778;2023-05-29T05:32:10;5.07;;;2.03;;
40907;SDS011;51055;59.436;24.778;2023-05-29T05:34:38;6.28;;;2.17;;
40907;SDS011;51055;59.436;24.778;2023-05-29T05:37:06;4.35;;;2.08;;
40907;SDS011;51055;59.436;24.778;2023-05-29T05:39:34;5.15;;;2.15;;
40907;SDS011;51055;59.436;24.778;2023-05-29T05:42:01;5.40;;;2.10;;
40907;SDS011;51055;59.436;24.778;2023-05-29T05:44:29;5.18;;;2.10;;
40907;SDS011;51055;59.436;24.778;2023-05-29T05:46:57;6.35;;;2.05;;
40907;SDS011;51055;59.436;24.778;2023-05-29T05:49:24;5.35;;;2.00;;
40907;SDS011;51055;59.436;24.778;2023-05-29T05:51:52;4.60;;;1.73;;
40907;SDS011;51055;59.436;24.778;2023-05-29T05:54:20;6.30;;;1.60;;
40907;SDS011;51055;59.436;24.778;2023-05-29T05:56:47;2.95;;;1.50;;
40907;SDS011;51055;59.436;24.778;2023-05-29T05:59:15;3.20;;;1.50;;
40907;SDS011;51055;59.436;24.778;2023-05-29T06:01:42;3.78;;;1.35;;
40907;SDS011;51055;59.436;24.778;2023-05-29T06:04:10;4.15;;;1.80;;
40907;SDS011;51055;59.436;24.778;2023-05-29T06:06:38;3.88;;;1.40;;
40907;SDS011;51055;59.436;24.778;2023-05-29T06:09:05;3.47;;;1.50;;
40907;SDS011;51055;59.436;24.778;2023-05-29T06:11:33;6.10;;;1.80;;
40907;SDS011;51055;59.436;24.778;2023-05-29T06:14:00;3.70;;;1.20;;
40907;SDS011;51055;59.436;24.778;2023-05-29T06:16:28;5.30;;;1.65;;
40907;SDS011;51055;59.436;24.778;2023-05-29T06:18:56;4.32;;;1.60;;
40907;SDS011;51055;59.436;24.778;2023-05-29T06:21:24;6.15;;;1.90;;
40907;SDS011;51055;59.436;24.778;2023-05-29T06:23:52;5.75;;;1.80;;
40907;SDS011;51055;59.436;24.778;2023-05-29T06:26:20;4.85;;;1.98;;
40907;SDS011;51055;59.436;24.778;2023-05-29T06:28:48;4.80;;;1.65;;
40907;SDS011;51055;59.436;24.778;2023-05-29T06:31:16;4.20;;;1.35;;
40907;SDS011;51055;59.436;24.778;2023-05-29T06:33:44;6.22;;;1.65;;
40907;SDS011;51055;59.436;24.778;2023-05-29T06:36:12;3.92;;;1.40;;
40907;SDS011;51055;59.436;24.778;2023-05-29T06:38:45;4.55;;;1.42;;
40907;SDS011;51055;59.436;24.778;2023-05-29T06:41:13;4.88;;;1.70;;
40907;SDS011;51055;59.436;24.778;2023-05-29T06:43:41;6.15;;;1.67;;
40907;SDS011;51055;59.436;24.778;2023-05-29T06:46:10;3.75;;;1.60;;
40907;SDS011;51055;59.436;24.778;2023-05-29T06:48:38;5.25;;;1.58;;
40907;SDS011;51055;59.436;24.778;2023-05-29T06:51:06;3.95;;;1.20;;
40907;SDS011;51055;59.436;24.778;2023-05-29T06:53:35;4.53;;;1.30;;
40907;SDS011;51055;59.436;24.778;2023-05-29T06:56:03;4.47;;;1.65;;
40907;SDS011;51055;59.436;24.778;2023-05-29T06:58:32;3.13;;;1.20;;
40907;SDS011;51055;59.436;24.778;2023-05-29T07:04:05;2.53;;;1.23;;
40907;SDS011;51055;59.436;24.778;2023-05-29T07:09:02;3.88;;;1.30;;
40907;SDS011;51055;59.436;24.778;2023-05-29T07:11:30;3.42;;;1.10;;
40907;SDS011;51055;59.436;24.778;2023-05-29T07:13:58;2.47;;;1.10;;
40907;SDS011;51055;59.436;24.778;2023-05-29T07:16:25;2.70;;;1.00;;
40907;SDS011;51055;59.436;24.778;2023-05-29T07:18:53;3.33;;;1.23;;
40907;SDS011;51055;59.436;24.778;2023-05-29T07:21:21;3.28;;;1.20;;
40907;SDS011;51055;59.436;24.778;2023-05-29T07:23:48;3.00;;;1.00;;
40907;SDS011;51055;59.436;24.778;2023-05-29T07:26:16;3.67;;;1.40;;
40907;SDS011;51055;59.436;24.778;2023-05-29T07:28:44;3.65;;;1.13;;
40907;SDS011;51055;59.436;24.778;2023-05-29T07:31:12;2.97;;;1.05;;
40907;SDS011;51055;59.436;24.778;2023-05-29T07:33:40;4.07;;;1.20;;
40907;SDS011;51055;59.436;24.778;2023-05-29T07:36:08;4.57;;;1.42;;
40907;SDS011;51055;59.436;24.778;2023-05-29T07:38:36;4.05;;;1.40;;
40907;SDS011;51055;59.436;24.778;2023-05-29T07:41:04;3.33;;;1.23;;
40907;SDS011;51055;59.436;24.778;2023-05-29T07:43:31;5.68;;;1.00;;
40907;SDS011;51055;59.436;24.778;2023-05-29T07:45:59;2.35;;;0.80;;
40907;SDS011;51055;59.436;24.778;2023-05-29T07:48:27;2.20;;;0.90;;
40907;SDS011;51055;59.436;24.778;2023-05-29T07:50:55;3.55;;;1.20;;
40907;SDS011;51055;59.436;24.778;2023-05-29T07:53:24;4.78;;;1.20;;
40907;SDS011;51055;59.436;24.778;2023-05-29T07:55:51;3.67;;;1.20;;
40907;SDS011;51055;59.436;24.778;2023-05-29T07:58:19;3.10;;;1.10;;
40907;SDS011;51055;59.436;24.778;2023-05-29T08:03:15;2.28;;;0.90;;
40907;SDS011;51055;59.436;24.778;2023-05-29T08:05:44;3.75;;;1.10;;
40907;SDS011;51055;59.436;24.778;2023-05-29T08:08:12;3.55;;;1.20;;
40907;SDS011;51055;59.436;24.778;2023-05-29T08:10:40;2.08;;;0.85;;
40907;SDS011;51055;59.436;24.778;2023-05-29T08:13:08;2.38;;;1.20;;
40907;SDS011;51055;59.436;24.778;2023-05-29T08:15:36;2.08;;;1.02;;
40907;SDS011;51055;59.436;24.778;2023-05-29T08:18:04;4.70;;;2.20;;
40907;SDS011;51055;59.436;24.778;2023-05-29T08:20:32;4.10;;;2.08;;
40907;SDS011;51055;59.436;24.778;2023-05-29T08:23:02;3.55;;;1.60;;
40907;SDS011;51055;59.436;24.778;2023-05-29T08:25:29;8.38;;;2.00;;
40907;SDS011;51055;59.436;24.778;2023-05-29T08:27:57;4.20;;;2.00;;
40907;SDS011;51055;59.436;24.778;2023-05-29T08:30:25;4.78;;;1.60;;
40907;SDS011;51055;59.436;24.778;2023-05-29T08:32:52;3.58;;;1.75;;
40907;SDS011;51055;59.436;24.778;2023-05-29T08:35:20;4.45;;;1.50;;
40907;SDS011;51055;59.436;24.778;2023-05-29T08:37:47;5.60;;;1.60;;
40907;SDS011;51055;59.436;24.778;2023-05-29T08:40:15;2.92;;;1.30;;
40907;SDS011;51055;59.436;24.778;2023-05-29T08:42:47;4.60;;;1.48;;
40907;SDS011;51055;59.436;24.778;2023-05-29T08:45:24;4.32;;;1.40;;
40907;SDS011;51055;59.436;24.778;2023-05-29T08:47:52;3.88;;;1.40;;
40907;SDS011;51055;59.436;24.778;2023-05-29T08:50:21;2.75;;;1.30;;
40907;SDS011;51055;59.436;24.778;2023-05-29T08:52:49;3.77;;;1.30;;
40907;SDS011;51055;59.436;24.778;2023-05-29T08:55:18;3.63;;;1.30;;
40907;SDS011;51055;59.436;24.778;2023-05-29T08:57:46;3.87;;;1.30;;
40907;SDS011;51055;59.436;24.778;2023-05-29T09:00:14;2.05;;;1.00;;
40907;SDS011;51055;59.436;24.778;2023-05-29T09:02:43;3.92;;;0.98;;
40907;SDS011;51055;59.436;24.778;2023-05-29T09:05:11;3.58;;;0.73;;
40907;SDS011;51055;59.436;24.778;2023-05-29T09:07:40;4.38;;;1.08;;
40907;SDS011;51055;59.436;24.778;2023-05-29T09:10:08;3.15;;;1.20;;
40907;SDS011;51055;59.436;24.778;2023-05-29T09:12:37;3.97;;;1.08;;
40907;SDS011;51055;59.436;24.778;2023-05-29T09:15:18;2.47;;;0.77;;
40907;SDS011;51055;59.436;24.778;2023-05-29T09:17:54;2.85;;;1.10;;
40907;SDS011;51055;59.436;24.778;2023-05-29T09:20:23;2.17;;;0.80;;
40907;SDS011;51055;59.436;24.778;2023-05-29T09:22:59;8.40;;;0.80;;
40907;SDS011;51055;59.436;24.778;2023-05-29T09:25:29;2.22;;;1.00;;
40907;SDS011;51055;59.436;24.778;2023-05-29T09:28:01;2.95;;;1.10;;
40907;SDS011;51055;59.436;24.778;2023-05-29T09:33:30;4.07;;;1.38;;
40907;SDS011;51055;59.436;24.778;2023-05-29T09:35:58;4.32;;;1.40;;
40907;SDS011;51055;59.436;24.778;2023-05-29T09:38:26;5.72;;;1.70;;
40907;SDS011;51055;59.436;24.778;2023-05-29T09:41:20;2.38;;;0.65;;
40907;SDS011;51055;59.436;24.778;2023-05-29T09:43:51;0.90;;;0.40;;
40907;SDS011;51055;59.436;24.778;2023-05-29T09:46:21;1.42;;;0.52;;
40907;SDS011;51055;59.436;24.778;2023-05-29T09:48:49;1.35;;;0.32;;
40907;SDS011;51055;59.436;24.778;2023-05-29T09:51:20;1.48;;;0.43;;
40907;SDS011;51055;59.436;24.778;2023-05-29T09:53:49;2.63;;;0.57;;
40907;SDS011;51055;59.436;24.778;2023-05-29T09:56:18;1.27;;;0.40;;
40907;SDS011;51055;59.436;24.778;2023-05-29T09:58:51;4.85;;;0.60;;
40907;SDS011;51055;59.436;24.778;2023-05-29T10:01:20;1.67;;;0.70;;
40907;SDS011;51055;59.436;24.778;2023-05-29T10:03:48;2.45;;;0.57;;
40907;SDS011;51055;59.436;24.778;2023-05-29T10:06:17;1.45;;;0.63;;
40907;SDS011;51055;59.436;24.778;2023-05-29T10:08:47;0.80;;;0.40;;
40907;SDS011;51055;59.436;24.778;2023-05-29T10:11:20;0.45;;;0.40;;
40907;SDS011;51055;59.436;24.778;2023-05-29T10:13:53;2.10;;;0.60;;
40907;SDS011;51055;59.436;24.778;2023-05-29T10:16:24;0.40;;;0.40;;
40907;SDS011;51055;59.436;24.778;2023-05-29T10:18:54;1.52;;;0.57;;
40907;SDS011;51055;59.436;24.778;2023-05-29T10:21:26;3.08;;;0.80;;
40907;SDS011;51055;59.436;24.778;2023-05-29T10:23:56;1.70;;;0.60;;
40907;SDS011;51055;59.436;24.778;2023-05-29T10:26:25;2.15;;;0.60;;
40907;SDS011;51055;59.436;24.778;2023-05-29T10:32:16;4.15;;;0.90;;
40907;SDS011;51055;59.436;24.778;2023-05-29T10:36:58;0.90;;;0.52;;
40907;SDS011;51055;59.436;24.778;2023-05-29T10:39:33;1.63;;;0.70;;
40907;SDS011;51055;59.436;24.778;2023-05-29T10:42:01;2.10;;;0.50;;
40907;SDS011;51055;59.436;24.778;2023-05-29T10:49:28;1.02;;;0.50;;
40907;SDS011;51055;59.436;24.778;2023-05-29T10:51:56;1.80;;;0.70;;
40907;SDS011;51055;59.436;24.778;2023-05-29T10:54:26;0.88;;;0.50;;
40907;SDS011;51055;59.436;24.778;2023-05-29T10:56:57;0.97;;;0.40;;
40907;SDS011;51055;59.436;24.778;2023-05-29T10:59:28;7.38;;;0.73;;
40907;SDS011;51055;59.436;24.778;2023-05-29T11:01:56;5.00;;;0.60;;
40907;SDS011;51055;59.436;24.778;2023-05-29T11:04:25;3.55;;;0.52;;
40907;SDS011;51055;59.436;24.778;2023-05-29T11:06:54;2.03;;;0.63;;
40907;SDS011;51055;59.436;24.778;2023-05-29T11:09:29;3.85;;;0.80;;
40907;SDS011;51055;59.436;24.778;2023-05-29T11:20:07;3.22;;;0.90;;
40907;SDS011;51055;59.436;24.778;2023-05-29T11:25:27;0.98;;;0.50;;
40907;SDS011;51055;59.436;24.778;2023-05-29T11:27:55;3.95;;;1.40;;
40907;SDS011;51055;59.436;24.778;2023-05-29T11:30:23;1.25;;;0.70;;
40907;SDS011;51055;59.436;24.778;2023-05-29T11:32:51;2.08;;;0.50;;
40907;SDS011;51055;59.436;24.778;2023-05-29T11:35:21;1.92;;;0.70;;
40907;SDS011;51055;59.436;24.778;2023-05-29T11:37:50;3.45;;;0.70;;
40907;SDS011;51055;59.436;24.778;2023-05-29T11:40:18;4.75;;;0.75;;
40907;SDS011;51055;59.436;24.778;2023-05-29T11:42:46;1.88;;;0.57;;
40907;SDS011;51055;59.436;24.778;2023-05-29T11:45:17;1.23;;;0.50;;
40907;SDS011;51055;59.436;24.778;2023-05-29T11:47:58;2.08;;;0.50;;
40907;SDS011;51055;59.436;24.778;2023-05-29T11:50:28;2.65;;;1.10;;
40907;SDS011;51055;59.436;24.778;2023-05-29T11:52:58;2.25;;;0.77;;
40907;SDS011;51055;59.436;24.778;2023-05-29T11:55:27;2.72;;;0.70;;
40907;SDS011;51055;59.436;24.778;2023-05-29T11:57:59;2.20;;;0.63;;
40907;SDS011;51055;59.436;24.778;2023-05-29T12:00:34;2.55;;;0.75;;
40907;SDS011;51055;59.436;24.778;2023-05-29T12:03:04;3.13;;;0.93;;
40907;SDS011;51055;59.436;24.778;2023-05-29T12:05:47;1.25;;;0.70;;
40907;SDS011;51055;59.436;24.778;2023-05-29T12:08:23;1.13;;;0.70;;
40907;SDS011;51055;59.436;24.778;2023-05-29T12:10:52;4.60;;;0.85;;
40907;SDS011;51055;59.436;24.778;2023-05-29T12:13:21;8.27;;;0.90;;
40907;SDS011;51055;59.436;24.778;2023-05-29T12:18:20;1.90;;;0.90;;
40907;SDS011;51055;59.436;24.778;2023-05-29T12:20:48;2.78;;;0.82;;
40907;SDS011;51055;59.436;24.778;2023-05-29T12:23:16;3.00;;;0.70;;
40907;SDS011;51055;59.436;24.778;2023-05-29T12:25:48;2.75;;;0.77;;
40907;SDS011;51055;59.436;24.778;2023-05-29T12:28:16;1.77;;;0.63;;
40907;SDS011;51055;59.436;24.778;2023-05-29T12:30:48;3.13;;;0.98;;
40907;SDS011;51055;59.436;24.778;2023-05-29T12:33:29;3.22;;;0.85;;
40907;SDS011;51055;59.436;24.778;2023-05-29T12:36:01;4.57;;;0.57;;
40907;SDS011;51055;59.436;24.778;2023-05-29T12:38:30;2.75;;;0.80;;
40907;SDS011;51055;59.436;24.778;2023-05-29T12:40:58;1.50;;;0.63;;
40907;SDS011;51055;59.436;24.778;2023-05-29T12:43:25;2.83;;;0.85;;
40907;SDS011;51055;59.436;24.778;2023-05-29T12:45:56;3.60;;;0.80;;
40907;SDS011;51055;59.436;24.778;2023-05-29T12:48:28;2.80;;;0.82;;
40907;SDS011;51055;59.436;24.778;2023-05-29T12:50:55;7.50;;;0.90;;
40907;SDS011;51055;59.436;24.778;2023-05-29T12:55:55;2.28;;;0.70;;
40907;SDS011;51055;59.436;24.778;2023-05-29T12:58:24;2.55;;;0.65;;
40907;SDS011;51055;59.436;24.778;2023-05-29T13:00:52;1.70;;;0.73;;
40907;SDS011;51055;59.436;24.778;2023-05-29T13:03:23;2.78;;;0.93;;
40907;SDS011;51055;59.436;24.778;2023-05-29T13:05:51;4.68;;;0.98;;
40907;SDS011;51055;59.436;24.778;2023-05-29T13:08:20;2.60;;;0.90;;
40907;SDS011;51055;59.436;24.778;2023-05-29T13:10:50;2.75;;;0.77;;
40907;SDS011;51055;59.436;24.778;2023-05-29T13:13:17;1.75;;;0.80;;
40907;SDS011;51055;59.436;24.778;2023-05-29T13:15:45;3.23;;;0.83;;
40907;SDS011;51055;59.436;24.778;2023-05-29T13:18:13;3.25;;;0.77;;
40907;SDS011;51055;59.436;24.778;2023-05-29T13:20:42;5.15;;;0.90;;
40907;SDS011;51055;59.436;24.778;2023-05-29T13:23:10;3.17;;;0.98;;
40907;SDS011;51055;59.436;24.778;2023-05-29T13:25:37;4.03;;;0.80;;
40907;SDS011;51055;59.436;24.778;2023-05-29T13:28:05;3.03;;;0.90;;
40907;SDS011;51055;59.436;24.778;2023-05-29T13:30:33;2.38;;;1.00;;
40907;SDS011;51055;59.436;24.778;2023-05-29T13:33:01;3.22;;;0.82;;
40907;SDS011;51055;59.436;24.778;2023-05-29T13:35:28;4.10;;;0.90;;
40907;SDS011;51055;59.436;24.778;2023-05-29T13:37:56;3.00;;;0.80;;
40907;SDS011;51055;59.436;24.778;2023-05-29T13:40:24;1.95;;;0.88;;
40907;SDS011;51055;59.436;24.778;2023-05-29T13:42:52;4.50;;;0.88;;
40907;SDS011;51055;59.436;24.778;2023-05-29T13:45:19;4.03;;;1.00;;
40907;SDS011;51055;59.436;24.778;2023-05-29T13:47:47;3.90;;;1.17;;
40907;SDS011;51055;59.436;24.778;2023-05-29T13:50:15;1.83;;;0.90;;
40907;SDS011;51055;59.436;24.778;2023-05-29T13:52:43;1.52;;;0.80;;
40907;SDS011;51055;59.436;24.778;2023-05-29T13:55:10;3.85;;;1.02;;
40907;SDS011;51055;59.436;24.778;2023-05-29T13:57:38;2.97;;;0.90;;
40907;SDS011;51055;59.436;24.778;2023-05-29T14:00:07;2.63;;;0.75;;
40907;SDS011;51055;59.436;24.778;2023-05-29T14:02:35;3.05;;;0.90;;
40907;SDS011;51055;59.436;24.778;2023-05-29T14:05:03;6.25;;;1.00;;
40907;SDS011;51055;59.436;24.778;2023-05-29T14:07:31;3.17;;;1.08;;
40907;SDS011;51055;59.436;24.778;2023-05-29T14:09:59;3.63;;;0.90;;
40907;SDS011;51055;59.436;24.778;2023-05-29T14:12:26;2.88;;;0.90;;
40907;SDS011;51055;59.436;24.778;2023-05-29T14:14:54;2.78;;;1.00;;
40907;SDS011;51055;59.436;24.778;2023-05-29T14:17:22;3.67;;;1.00;;
40907;SDS011;51055;59.436;24.778;2023-05-29T14:19:49;2.58;;;0.95;;
40907;SDS011;51055;59.436;24.778;2023-05-29T14:22:17;4.80;;;1.02;;
40907;SDS011;51055;59.436;24.778;2023-05-29T14:24:45;2.45;;;1.00;;
40907;SDS011;51055;59.436;24.778;2023-05-29T14:27:12;2.85;;;0.90;;
40907;SDS011;51055;59.436;24.778;2023-05-29T14:29:40;1.98;;;0.85;;
40907;SDS011;51055;59.436;24.778;2023-05-29T14:32:07;5.45;;;1.20;;
40907;SDS011;51055;59.436;24.778;2023-05-29T14:34:35;3.40;;;1.00;;
40907;SDS011;51055;59.436;24.778;2023-05-29T14:37:03;2.65;;;0.90;;
40907;SDS011;51055;59.436;24.778;2023-05-29T14:39:30;2.63;;;1.00;;
40907;SDS011;51055;59.436;24.778;2023-05-29T14:41:58;2.40;;;0.88;;
40907;SDS011;51055;59.436;24.778;2023-05-29T14:44:25;12.88;;;1.38;;
40907;SDS011;51055;59.436;24.778;2023-05-29T14:46:54;2.85;;;0.75;;
40907;SDS011;51055;59.436;24.778;2023-05-29T14:49:22;3.40;;;0.80;;
40907;SDS011;51055;59.436;24.778;2023-05-29T14:51:50;3.60;;;1.10;;
40907;SDS011;51055;59.436;24.778;2023-05-29T14:54:19;3.50;;;1.10;;
40907;SDS011;51055;59.436;24.778;2023-05-29T14:56:47;3.40;;;0.95;;
40907;SDS011;51055;59.436;24.778;2023-05-29T14:59:15;5.22;;;1.10;;
40907;SDS011;51055;59.436;24.778;2023-05-29T15:01:42;3.85;;;0.90;;
40907;SDS011;51055;59.436;24.778;2023-05-29T15:04:10;5.53;;;1.20;;
40907;SDS011;51055;59.436;24.778;2023-05-29T15:06:38;4.93;;;1.20;;
40907;SDS011;51055;59.436;24.778;2023-05-29T15:09:05;4.22;;;1.10;;
40907;SDS011;51055;59.436;24.778;2023-05-29T15:11:33;2.03;;;0.90;;
40907;SDS011;51055;59.436;24.778;2023-05-29T15:14:01;4.30;;;1.00;;
40907;SDS011;51055;59.436;24.778;2023-05-29T15:16:29;3.28;;;1.08;;
40907;SDS011;51055;59.436;24.778;2023-05-29T15:18:56;3.80;;;1.10;;
40907;SDS011;51055;59.436;24.778;2023-05-29T15:21:24;3.80;;;1.17;;
40907;SDS011;51055;59.436;24.778;2023-05-29T15:23:52;3.30;;;1.20;;
40907;SDS011;51055;59.436;24.778;2023-05-29T15:26:19;3.30;;;1.08;;
40907;SDS011;51055;59.436;24.778;2023-05-29T15:28:47;5.47;;;0.85;;
40907;SDS011;51055;59.436;24.778;2023-05-29T15:31:15;5.22;;;1.20;;
40907;SDS011;51055;59.436;24.778;2023-05-29T15:33:44;9.40;;;1.20;;
40907;SDS011;51055;59.436;24.778;2023-05-29T15:36:11;7.85;;;1.90;;